createdAt,value
2024-01-15T00:00:12.478Z,10.27
2024-01-15T00:02:40.400Z,10.05
2024-01-15T00:05:08.998Z,9.63
2024-01-15T00:07:37.329Z,10.00
2024-01-15T00:10:05.896Z,9.25
2024-01-15T00:12:33.669Z,9.57
2024-01-15T00:15:01.775Z,10.60
2024-01-15T00:17:30.932Z,9.77
2024-01-15T00:19:59.041Z,8.63
2024-01-15T00:22:27.571Z,9.02
2024-01-15T00:24:55.713Z,10.07
2024-01-15T00:27:24.805Z,9.77
2024-01-15T00:29:53.278Z,10.20
2024-01-15T00:32:21.159Z,9.93
2024-01-15T00:34:50.743Z,10.65
2024-01-15T00:37:18.640Z,9.93
2024-01-15T00:39:47.002Z,9.95
2024-01-15T00:42:14.934Z,8.95
2024-01-15T00:44:44.092Z,9.60
2024-01-15T00:47:11.779Z,9.32
2024-01-15T00:49:39.944Z,9.48
2024-01-15T00:52:09.677Z,9.95
2024-01-15T00:54:37.584Z,9.77
2024-01-15T00:57:06.324Z,9.63
2024-01-15T00:59:34.124Z,9.48
2024-01-15T01:02:01.862Z,10.00
2024-01-15T01:04:29.918Z,9.98
2024-01-15T01:06:58.052Z,9.13
2024-01-15T01:09:30.292Z,9.02
2024-01-15T01:11:58.414Z,9.57
2024-01-15T01:14:26.157Z,9.18
2024-01-15T01:16:54.176Z,9.70
2024-01-15T01:19:22.166Z,9.23
2024-01-15T01:21:52.323Z,9.20
2024-01-15T01:24:20.125Z,9.32
2024-01-15T01:26:50.381Z,10.27
2024-01-15T01:29:18.151Z,10.75
2024-01-15T01:31:46.637Z,10.35
2024-01-15T01:34:17.266Z,9.45
2024-01-15T01:36:45.937Z,9.75
2024-01-15T01:39:13.744Z,9.45
2024-01-15T01:41:42.013Z,9.70
2024-01-15T01:44:11.113Z,10.07
2024-01-15T01:46:41.944Z,9.60
2024-01-15T01:49:11.233Z,9.35
2024-01-15T01:51:41.112Z,10.13
2024-01-15T01:54:12.800Z,9.48
2024-01-15T01:56:41.016Z,9.05
2024-01-15T01:59:12.317Z,9.30
2024-01-15T02:01:41.218Z,8.77
2024-01-15T02:04:09.283Z,9.07
2024-01-15T02:06:37.300Z,9.82
2024-01-15T02:09:06.631Z,9.63
2024-01-15T02:11:34.738Z,9.57
2024-01-15T02:14:03.482Z,9.90
2024-01-15T02:16:32.958Z,10.60
2024-01-15T02:19:01.054Z,9.17
2024-01-15T02:21:29.938Z,10.15
2024-01-15T02:23:59.706Z,9.40
2024-01-15T02:26:28.426Z,10.05
2024-01-15T02:28:56.614Z,9.75
2024-01-15T02:31:24.608Z,9.73
2024-01-15T02:33:53.077Z,9.52
2024-01-15T02:36:20.920Z,9.25
2024-01-15T02:38:48.937Z,8.38
2024-01-15T02:41:18.070Z,7.65
2024-01-15T02:43:46.028Z,9.00
2024-01-15T02:46:13.724Z,7.97
2024-01-15T02:48:41.509Z,7.85
2024-01-15T02:51:09.852Z,8.25
2024-01-15T02:53:38.292Z,7.30
2024-01-15T02:56:07.033Z,8.15
2024-01-15T02:58:36.106Z,6.82
2024-01-15T03:01:04.460Z,7.22
2024-01-15T03:03:34.191Z,7.07
2024-01-15T03:06:03.803Z,7.60
2024-01-15T03:08:31.686Z,7.05
2024-01-15T03:11:00.416Z,7.63
2024-01-15T03:13:28.268Z,7.25
2024-01-15T03:15:57.794Z,7.78
2024-01-15T03:18:25.738Z,7.32
2024-01-15T03:20:54.019Z,7.60
2024-01-15T03:23:21.701Z,7.38
2024-01-15T03:25:50.444Z,6.65
2024-01-15T03:28:18.317Z,7.30
2024-01-15T03:30:46.773Z,7.20
2024-01-15T03:33:16.115Z,7.03
2024-01-15T03:35:42.880Z,6.93
2024-01-15T03:38:10.970Z,6.85
2024-01-15T03:40:38.927Z,7.57
2024-01-15T03:43:07.077Z,7.25
2024-01-15T03:45:34.853Z,7.20
2024-01-15T03:48:03.017Z,7.13
2024-01-15T03:50:32.075Z,6.13
2024-01-15T03:53:00.141Z,6.40
2024-01-15T03:55:27.876Z,6.95
2024-01-15T03:57:56.357Z,6.63
2024-01-15T04:00:24.756Z,6.53
2024-01-15T04:02:52.886Z,6.03
2024-01-15T04:05:20.729Z,5.55
2024-01-15T04:07:50.129Z,6.13
2024-01-15T04:10:17.939Z,6.07
2024-01-15T04:12:47.588Z,6.43
2024-01-15T04:15:15.637Z,5.75
2024-01-15T04:17:43.765Z,6.35
2024-01-15T04:20:12.614Z,6.13
2024-01-15T04:22:40.390Z,5.40
2024-01-15T04:25:10.240Z,5.22
2024-01-15T04:27:37.999Z,4.47
2024-01-15T04:30:07.471Z,5.68
2024-01-15T04:32:35.306Z,5.63
2024-01-15T04:35:03.321Z,5.07
2024-01-15T04:37:31.087Z,5.60
2024-01-15T04:39:59.131Z,4.90
2024-01-15T04:42:28.294Z,5.47
2024-01-15T04:44:56.260Z,4.70
2024-01-15T04:47:23.966Z,5.35
2024-01-15T04:49:52.587Z,4.75
2024-01-15T04:52:20.350Z,4.68
2024-01-15T04:54:48.327Z,3.88
2024-01-15T04:57:16.059Z,4.07
2024-01-15T04:59:45.487Z,4.15
2024-01-15T05:02:13.247Z,3.95
2024-01-15T05:04:41.703Z,4.45
2024-01-15T05:07:09.724Z,4.35
2024-01-15T05:09:37.886Z,3.80
2024-01-15T05:12:06.492Z,3.40
2024-01-15T05:14:34.637Z,3.65
2024-01-15T05:17:03.780Z,3.83
2024-01-15T05:19:31.870Z,3.30
2024-01-15T05:21:59.713Z,3.65
2024-01-15T05:24:28.271Z,3.10
2024-01-15T05:26:56.046Z,3.35
2024-01-15T05:29:24.431Z,3.20
2024-01-15T05:31:52.230Z,3.17
2024-01-15T05:34:21.840Z,3.22
2024-01-15T05:36:49.765Z,2.80
2024-01-15T05:39:18.373Z,3.53
2024-01-15T05:41:46.838Z,2.22
2024-01-15T05:44:14.839Z,2.97
2024-01-15T05:46:42.519Z,3.53
2024-01-15T05:49:10.445Z,3.28
2024-01-15T05:51:40.050Z,3.20
2024-01-15T05:54:07.822Z,3.10
2024-01-15T05:56:35.862Z,3.13
2024-01-15T05:59:03.553Z,2.45
2024-01-15T06:01:31.914Z,2.55
2024-01-15T06:03:59.803Z,2.95
2024-01-15T06:06:28.237Z,2.83
2024-01-15T06:08:57.374Z,2.83
2024-01-15T06:11:25.409Z,2.83
2024-01-15T06:13:53.154Z,3.15
2024-01-15T06:16:21.650Z,3.03
2024-01-15T06:18:49.595Z,3.08
2024-01-15T06:21:18.203Z,3.15
2024-01-15T06:23:45.950Z,2.88
2024-01-15T06:26:15.755Z,3.30
2024-01-15T06:28:43.476Z,3.58
2024-01-15T06:31:11.719Z,2.40
2024-01-15T06:33:39.994Z,3.38
2024-01-15T06:36:08.897Z,2.92
2024-01-15T06:38:36.719Z,1.98
2024-01-15T06:41:04.829Z,2.22
2024-01-15T06:43:34.495Z,2.53
2024-01-15T06:46:06.301Z,2.33
2024-01-15T06:48:35.488Z,2.55
2024-01-15T06:51:03.766Z,1.90
2024-01-15T06:53:31.447Z,2.40
2024-01-15T06:55:59.582Z,2.25
2024-01-15T06:58:27.264Z,3.13
2024-01-15T07:00:56.833Z,2.28
2024-01-15T07:03:24.678Z,2.28
2024-01-15T07:05:52.767Z,2.97
2024-01-15T07:08:20.677Z,2.70
2024-01-15T07:10:48.857Z,2.15
2024-01-15T07:13:16.896Z,2.42
2024-01-15T07:15:44.918Z,2.00
2024-01-15T07:18:14.092Z,2.05
2024-01-15T07:20:42.236Z,2.10
2024-01-15T07:23:09.945Z,2.05
2024-01-15T07:25:37.842Z,1.95
2024-01-15T07:28:06.624Z,2.20
2024-01-15T07:30:34.386Z,2.55
2024-01-15T07:33:02.698Z,2.58
2024-01-15T07:35:32.058Z,2.67
2024-01-15T07:38:00.343Z,2.40
2024-01-15T07:40:28.033Z,2.13
2024-01-15T07:42:56.144Z,2.40
2024-01-15T07:45:23.985Z,2.42
2024-01-15T07:47:52.373Z,2.50
2024-01-15T07:50:20.156Z,2.40
2024-01-15T07:52:50.172Z,1.80
2024-01-15T07:55:17.875Z,2.55
2024-01-15T07:57:50.835Z,2.25
2024-01-15T08:00:24.101Z,2.40
2024-01-15T08:02:52.488Z,2.15
2024-01-15T08:05:20.252Z,2.35
2024-01-15T08:07:49.771Z,2.33
2024-01-15T08:10:17.854Z,3.23
2024-01-15T08:12:45.914Z,2.70
2024-01-15T08:15:13.709Z,3.00
2024-01-15T08:17:41.775Z,2.25
2024-01-15T08:20:11.596Z,2.58
2024-01-15T08:22:41.147Z,2.90
2024-01-15T08:25:11.073Z,2.83
2024-01-15T08:27:38.894Z,2.17
2024-01-15T08:30:07.918Z,2.42
2024-01-15T08:32:37.688Z,3.08
2024-01-15T08:35:06.273Z,2.10
2024-01-15T08:37:34.338Z,2.63
2024-01-15T08:40:02.211Z,2.10
2024-01-15T08:42:31.575Z,2.58
2024-01-15T08:44:59.350Z,2.47
2024-01-15T08:47:27.527Z,2.03
2024-01-15T08:49:55.328Z,2.60
2024-01-15T08:52:23.609Z,2.50
2024-01-15T08:54:51.640Z,2.50
2024-01-15T08:57:19.871Z,2.05
2024-01-15T08:59:49.045Z,2.00
2024-01-15T09:02:16.945Z,2.33
2024-01-15T09:04:45.009Z,2.97
2024-01-15T09:07:12.791Z,2.60
2024-01-15T09:09:40.842Z,2.63
2024-01-15T09:12:09.375Z,2.40
2024-01-15T09:14:37.821Z,2.28
2024-01-15T09:17:07.575Z,3.08
2024-01-15T09:19:36.012Z,2.30
2024-01-15T09:22:03.938Z,3.33
2024-01-15T09:24:32.095Z,2.67
2024-01-15T09:26:59.787Z,3.92
2024-01-15T09:29:27.935Z,2.53
2024-01-15T09:31:55.717Z,2.55
2024-01-15T09:34:25.195Z,2.22
2024-01-15T09:36:53.211Z,2.53
2024-01-15T09:39:21.494Z,2.42
2024-01-15T09:41:50.661Z,3.17
2024-01-15T09:44:19.491Z,2.53
2024-01-15T09:46:51.207Z,2.42
2024-01-15T09:49:19.848Z,2.50
2024-01-15T09:51:56.220Z,2.33
2024-01-15T09:54:31.236Z,2.33
2024-01-15T09:56:59.015Z,2.28
2024-01-15T09:59:29.472Z,2.92
2024-01-15T10:04:25.960Z,1.73
2024-01-15T10:06:56.573Z,2.08
2024-01-15T10:09:24.762Z,1.67
2024-01-15T10:11:52.640Z,1.95
2024-01-15T10:14:21.555Z,2.58
2024-01-15T10:16:49.263Z,2.47
2024-01-15T10:19:17.479Z,2.20
2024-01-15T10:21:45.632Z,2.28
2024-01-15T10:24:14.720Z,1.95
2024-01-15T10:26:42.513Z,2.28
2024-01-15T10:29:12.214Z,2.08
2024-01-15T10:31:40.349Z,2.20
2024-01-15T10:34:17.286Z,2.00
2024-01-15T10:36:48.965Z,2.22
2024-01-15T10:39:18.646Z,2.00
2024-01-15T10:41:46.691Z,1.50
2024-01-15T10:44:14.557Z,2.22
2024-01-15T10:46:42.989Z,2.42
2024-01-15T10:49:11.899Z,2.85
2024-01-15T10:51:40.011Z,2.03
2024-01-15T10:54:12.466Z,2.30
2024-01-15T10:56:42.379Z,1.80
2024-01-15T10:59:12.691Z,2.33
2024-01-15T11:01:40.799Z,1.77
2024-01-15T11:04:09.471Z,1.70
2024-01-15T11:06:45.659Z,1.90
2024-01-15T11:09:16.189Z,2.42
2024-01-15T11:11:46.724Z,1.80
2024-01-15T11:17:04.400Z,1.75
2024-01-15T11:19:39.034Z,1.48
2024-01-15T11:22:07.534Z,1.60
2024-01-15T11:24:40.310Z,1.63
2024-01-15T11:27:10.692Z,1.85
2024-01-15T11:29:39.330Z,1.50
2024-01-15T11:32:08.240Z,1.15
2024-01-15T11:35:00.302Z,1.30
2024-01-15T11:37:29.789Z,1.70
2024-01-15T11:39:58.299Z,1.75
2024-01-15T11:42:29.350Z,1.58
2024-01-15T11:44:57.350Z,1.67
2024-01-15T11:48:09.269Z,1.65
2024-01-15T11:50:37.032Z,1.55
2024-01-15T11:53:28.497Z,1.55
2024-01-15T11:56:00.504Z,1.30
2024-01-15T11:58:30.083Z,1.60
2024-01-15T12:00:58.011Z,1.57
2024-01-15T12:03:26.345Z,1.52
2024-01-15T12:05:55.791Z,2.00
2024-01-15T12:08:24.688Z,2.53
2024-01-15T12:10:53.012Z,2.22
2024-01-15T12:13:22.474Z,1.90
2024-01-15T12:15:51.881Z,1.98
2024-01-15T12:18:21.578Z,2.45
2024-01-15T12:20:50.626Z,2.10
2024-01-15T12:23:19.395Z,2.03
2024-01-15T12:25:47.038Z,1.70
2024-01-15T12:28:15.471Z,1.70
2024-01-15T12:30:43.900Z,1.83
2024-01-15T12:33:13.173Z,1.80
2024-01-15T12:35:40.978Z,1.92
2024-01-15T12:38:08.655Z,2.42
2024-01-15T12:40:37.526Z,1.90
2024-01-15T12:43:07.829Z,2.00
2024-01-15T12:45:36.542Z,1.85
2024-01-15T12:48:04.938Z,1.90
2024-01-15T12:50:36.131Z,1.88
2024-01-15T12:53:03.931Z,1.80
2024-01-15T12:55:31.593Z,1.70
2024-01-15T12:58:00.026Z,2.00
2024-01-15T13:00:27.891Z,1.52
2024-01-15T13:02:57.223Z,1.85
2024-01-15T13:05:26.080Z,1.38
2024-01-15T13:07:55.332Z,1.65
2024-01-15T13:10:25.530Z,1.67
2024-01-15T13:12:54.714Z,1.42
2024-01-15T13:15:22.562Z,1.75
2024-01-15T13:17:50.376Z,1.80
2024-01-15T13:20:18.683Z,1.83
2024-01-15T13:22:46.976Z,1.52
2024-01-15T13:25:17.208Z,1.40
2024-01-15T13:30:15.260Z,1.50
2024-01-15T13:32:43.281Z,1.63
2024-01-15T13:35:14.893Z,1.60
2024-01-15T13:37:43.590Z,1.40
2024-01-15T13:40:18.286Z,2.38
2024-01-15T13:42:48.306Z,1.40
2024-01-15T13:45:16.748Z,1.52
2024-01-15T13:47:46.086Z,1.73
2024-01-15T13:50:14.427Z,1.67
2024-01-15T13:52:42.206Z,1.45
2024-01-15T13:55:11.317Z,1.83
2024-01-15T13:57:39.253Z,1.58
2024-01-15T14:00:13.711Z,1.63
2024-01-15T14:02:41.772Z,2.10
2024-01-15T14:05:09.878Z,2.00
2024-01-15T14:07:38.177Z,1.98
2024-01-15T14:10:06.716Z,1.85
2024-01-15T14:12:34.511Z,1.60
2024-01-15T14:15:02.730Z,1.88
2024-01-15T14:17:31.948Z,1.90
2024-01-15T14:19:59.886Z,1.75
2024-01-15T14:22:27.976Z,1.70
2024-01-15T14:24:55.688Z,1.58
2024-01-15T14:27:23.732Z,1.77
2024-01-15T14:29:52.062Z,1.50
2024-01-15T14:32:19.725Z,1.80
2024-01-15T14:34:49.410Z,1.70
2024-01-15T14:37:17.677Z,2.20
2024-01-15T14:39:45.427Z,1.85
2024-01-15T14:42:13.399Z,1.80
2024-01-15T14:44:42.557Z,1.48
2024-01-15T14:47:10.236Z,1.50
2024-01-15T14:49:38.025Z,1.50
2024-01-15T14:52:08.320Z,1.60
2024-01-15T14:54:36.129Z,1.70
2024-01-15T14:57:03.864Z,1.33
2024-01-15T14:59:31.912Z,2.05
2024-01-15T15:01:59.768Z,1.58
2024-01-15T15:04:27.706Z,1.70
2024-01-15T15:06:56.129Z,1.95
2024-01-15T15:09:25.385Z,1.98
2024-01-15T15:11:53.603Z,1.63
2024-01-15T15:14:21.767Z,2.00
2024-01-15T15:16:49.501Z,1.67
2024-01-15T15:19:18.788Z,1.77
2024-01-15T15:21:47.557Z,1.67
2024-01-15T15:24:15.308Z,1.98
2024-01-15T15:26:44.844Z,2.30
2024-01-15T15:29:13.080Z,1.93
2024-01-15T15:31:40.874Z,1.60
2024-01-15T15:34:08.850Z,2.20
2024-01-15T15:36:37.676Z,2.08
2024-01-15T15:39:05.487Z,2.10
2024-01-15T15:41:34.365Z,27.15
2024-01-15T15:44:03.420Z,4.60
2024-01-15T15:46:31.108Z,2.25
2024-01-15T15:48:59.374Z,2.22
2024-01-15T15:51:27.192Z,2.30
2024-01-15T15:53:55.274Z,2.40
2024-01-15T15:56:22.969Z,3.50
2024-01-15T15:58:50.919Z,2.10
2024-01-15T16:01:20.139Z,2.20
2024-01-15T16:03:48.494Z,2.17
2024-01-15T16:06:16.464Z,2.42
2024-01-15T16:08:44.859Z,2.25
2024-01-15T16:11:13.185Z,2.00
2024-01-15T16:13:41.556Z,2.58
2024-01-15T16:23:09.935Z,1.83
2024-01-15T16:23:23.075Z,2.42
2024-01-15T16:23:38.134Z,2.33
2024-01-15T16:24:46.155Z,2.30
2024-01-15T16:27:19.619Z,2.38
2024-01-15T16:29:47.325Z,2.05
2024-01-15T16:32:15.104Z,2.15
2024-01-15T16:34:44.609Z,3.78
2024-01-15T16:37:12.343Z,11.38
2024-01-15T16:39:40.500Z,2.25
2024-01-15T16:42:10.380Z,2.28
2024-01-15T16:44:38.619Z,2.42
2024-01-15T16:47:08.219Z,3.97
2024-01-15T16:52:08.231Z,2.50
2024-01-15T16:54:36.778Z,2.72
2024-01-15T16:57:05.227Z,2.45
2024-01-15T16:59:33.017Z,2.88
2024-01-15T17:02:01.278Z,2.83
2024-01-15T17:04:29.143Z,2.67
2024-01-15T17:06:57.708Z,2.88
2024-01-15T17:09:26.809Z,2.67
2024-01-15T17:11:54.734Z,2.55
2024-01-15T17:14:22.433Z,3.13
2024-01-15T17:16:50.104Z,2.67
2024-01-15T17:19:18.300Z,3.30
2024-01-15T17:21:46.004Z,3.10
2024-01-15T17:24:14.575Z,2.70
2024-01-15T17:26:43.696Z,3.10
2024-01-15T17:29:11.921Z,3.00
2024-01-15T17:31:39.736Z,2.95
2024-01-15T17:34:07.942Z,2.72
2024-01-15T17:36:35.623Z,2.85
2024-01-15T17:39:03.704Z,3.25
2024-01-15T17:41:34.487Z,2.90
2024-01-15T17:44:03.803Z,3.20
2024-01-15T17:46:31.944Z,2.60
2024-01-15T17:49:04.161Z,2.75
2024-01-15T17:51:33.833Z,21.55
2024-01-15T17:54:02.194Z,3.87
2024-01-15T17:56:30.578Z,3.08
2024-01-15T17:58:58.931Z,2.58
2024-01-15T18:01:28.424Z,2.88
2024-01-15T18:03:58.756Z,2.80
2024-01-15T18:08:54.605Z,3.45
2024-01-15T18:11:22.446Z,2.85
2024-01-15T18:13:50.645Z,2.97
2024-01-15T18:16:23.377Z,3.50
2024-01-15T18:18:53.816Z,2.90
2024-01-15T18:21:22.498Z,2.50
2024-01-15T18:23:50.781Z,2.30
2024-01-15T18:26:19.075Z,2.20
2024-01-15T18:28:46.774Z,2.05
2024-01-15T18:31:15.030Z,2.20
2024-01-15T18:33:42.858Z,2.05
2024-01-15T18:36:12.595Z,7.75
2024-01-15T18:38:40.351Z,7.25
2024-01-15T18:41:08.469Z,1.80
2024-01-15T18:43:36.383Z,15.90
2024-01-15T18:46:06.625Z,2.60
2024-01-15T18:48:34.512Z,4.40
2024-01-15T18:51:02.334Z,2.38
2024-01-15T18:53:31.670Z,2.15
2024-01-15T18:55:59.493Z,2.22
2024-01-15T18:58:27.562Z,2.70
2024-01-15T19:00:55.547Z,2.17
2024-01-15T19:03:23.355Z,2.78
2024-01-15T19:05:51.325Z,2.10
2024-01-15T19:08:19.100Z,2.40
2024-01-15T19:10:49.753Z,4.22
2024-01-15T19:13:17.519Z,5.40
2024-01-15T19:15:45.410Z,4.63
2024-01-15T19:18:14.077Z,3.83
2024-01-15T19:20:42.571Z,2.03
2024-01-15T19:23:12.247Z,1.60
2024-01-15T19:25:39.966Z,1.90
2024-01-15T19:28:09.255Z,11.93
2024-01-15T19:30:36.966Z,2.20
2024-01-15T19:33:05.410Z,13.80
2024-01-15T19:35:33.283Z,2.10
2024-01-15T19:38:03.258Z,1.80
2024-01-15T19:40:31.411Z,2.00
2024-01-15T19:42:59.623Z,1.98
2024-01-15T19:45:28.911Z,1.98
2024-01-15T19:47:56.676Z,2.13
2024-01-15T19:50:25.149Z,1.90
2024-01-15T19:52:52.901Z,1.98
2024-01-15T19:55:20.807Z,2.38
2024-01-15T19:57:48.753Z,2.08
2024-01-15T20:00:17.290Z,1.85
2024-01-15T20:02:47.201Z,2.60
2024-01-15T20:05:15.430Z,2.20
2024-01-15T20:07:43.235Z,2.38
2024-01-15T20:10:11.966Z,18.48
2024-01-15T20:12:40.991Z,16.23
2024-01-15T20:15:09.377Z,4.03
2024-01-15T20:17:37.550Z,2.75
2024-01-15T20:20:11.608Z,2.40
2024-01-15T20:22:39.961Z,2.72
2024-01-15T20:25:09.060Z,2.30
2024-01-15T20:27:37.393Z,1.90
2024-01-15T20:30:07.553Z,2.17
2024-01-15T20:32:35.506Z,2.50
2024-01-15T20:35:04.869Z,2.53
2024-01-15T20:37:33.983Z,2.70
2024-01-15T20:40:02.187Z,2.70
2024-01-15T20:42:30.846Z,2.42
2024-01-15T20:44:59.128Z,2.70
2024-01-15T20:47:26.944Z,2.25
2024-01-15T20:49:55.073Z,2.10
2024-01-15T20:52:25.415Z,1.90
2024-01-15T20:54:55.123Z,2.20
2024-01-15T20:57:23.051Z,2.43
2024-01-15T20:59:51.878Z,5.40
2024-01-15T21:02:20.364Z,12.93
2024-01-15T21:04:48.128Z,2.20
2024-01-15T21:07:16.236Z,2.00
2024-01-15T21:09:44.365Z,2.15
2024-01-15T21:12:14.131Z,4.15
2024-01-15T21:14:41.862Z,12.18
2024-01-15T21:17:09.662Z,2.40
2024-01-15T21:19:37.820Z,1.85
2024-01-15T21:22:05.724Z,2.33
2024-01-15T21:24:34.142Z,1.70
2024-01-15T21:27:01.842Z,1.80
2024-01-15T21:29:31.077Z,2.10
2024-01-15T21:31:59.244Z,2.20
2024-01-15T21:34:27.036Z,1.90
2024-01-15T21:36:54.766Z,1.60
2024-01-15T21:39:22.795Z,1.80
2024-01-15T21:41:50.989Z,1.88
2024-01-15T21:44:18.817Z,2.00
2024-01-15T21:46:48.880Z,1.80
2024-01-15T21:49:16.751Z,1.80
2024-01-15T21:51:44.548Z,1.92
2024-01-15T21:54:12.614Z,1.70
2024-01-15T21:56:40.444Z,2.03
2024-01-15T21:59:08.538Z,1.83
2024-01-15T22:01:36.707Z,2.10
2024-01-15T22:04:06.696Z,4.25
2024-01-15T22:06:37.341Z,3.78
2024-01-15T22:09:05.245Z,2.00
2024-01-15T22:11:32.986Z,1.83
2024-01-15T22:14:01.102Z,1.65
2024-01-15T22:16:28.819Z,4.32
2024-01-15T22:19:02.448Z,3.63
2024-01-15T22:21:32.300Z,1.77
2024-01-15T22:24:00.049Z,1.98
2024-01-15T22:26:27.799Z,1.60
2024-01-15T22:28:56.017Z,1.77
2024-01-15T22:31:23.947Z,1.50
2024-01-15T22:33:51.905Z,2.08
2024-01-15T22:36:20.093Z,2.10
2024-01-15T22:38:49.952Z,1.60
2024-01-15T22:41:17.813Z,1.77
2024-01-15T22:43:47.122Z,1.90
2024-01-15T22:46:15.154Z,1.63
2024-01-15T22:48:43.159Z,1.65
2024-01-15T22:51:11.674Z,2.03
2024-01-15T22:53:39.431Z,2.10
2024-01-15T22:56:08.636Z,1.85
2024-01-15T22:58:36.738Z,1.80
2024-01-15T23:01:04.930Z,2.10
2024-01-15T23:03:32.761Z,1.85
2024-01-15T23:06:01.059Z,1.70
2024-01-15T23:08:29.458Z,1.85
2024-01-15T23:10:57.147Z,1.83
2024-01-15T23:13:26.447Z,1.80
2024-01-15T23:15:54.195Z,1.70
2024-01-15T23:18:22.086Z,1.70
2024-01-15T23:20:50.291Z,1.95
2024-01-15T23:23:17.987Z,2.03
2024-01-15T23:25:45.900Z,2.00
2024-01-15T23:28:14.032Z,2.35
2024-01-15T23:30:43.122Z,1.95
2024-01-15T23:33:10.965Z,1.70
2024-01-15T23:35:39.090Z,2.03
2024-01-15T23:38:07.306Z,1.90
2024-01-15T23:40:35.096Z,1.75
2024-01-15T23:43:03.644Z,2.00
2024-01-15T23:45:31.317Z,1.83
2024-01-15T23:48:00.973Z,2.00
2024-01-15T23:50:29.066Z,1.60
2024-01-15T23:52:56.828Z,1.77
2024-01-15T23:55:24.562Z,1.70
2024-01-15T23:57:52.907Z,1.98
